KTVC/TVC METAR and TAF weather

Enter ICAO airport designator
Station Type Date Time Source
KTVC METAR 2020/09/25 06:53 UTC NOAA

KTVC 250653Z AUTO 00000KT 9SM SCT050 15/13 A2993 RMK AO2 SLP133 T01500128


Station Type Date Time Source
KTVC Decoded METAR 2020/09/25 06:53 UTC NOAA

CHERRY CAPITAL AIRPORT, MI, United States (KTVC) 44-44N 085-34W 190M
Sep 25, 2020 - 02:53 AM EDT / 2020.09.25 0653 UTC
Wind: Calm:0
Visibility: 9 mile(s):0
Sky conditions: partly cloudy
Temperature: 59.0 F (15.0 C)
Dew Point: 55.0 F (12.8 C)
Relative Humidity: 86%
Pressure (altimeter): 29.93 in. Hg (1013 hPa)
ob: KTVC 250653Z AUTO 00000KT 9SM SCT050 15/13 A2993 RMK AO2 SLP133 T01500128
cycle: 7

Station Type Date Time Source
KTVC TAF 2020/09/25 07:03 UTC NOAA

TAF
AMD KTVC 250700Z 2507/2606 00000KT P6SM BKN060
TEMPO 2507/2508 4SM BR SCT060
FM250800 16005KT P6SM BKN050
FM251300 19006KT P6SM SCT045
FM251500 21008KT P6SM FEW250
FM251700 22011G20KT P6SM FEW250
FM252300 20009KT P6SM FEW250
FM260200 19010G18KT P6SM SCT150

Example: see airport list